createdAt,value
2024-02-19T00:00:13.761Z,102628.34
2024-02-19T00:02:41.792Z,102632.53
2024-02-19T00:05:11.235Z,102640.44
2024-02-19T00:07:39.164Z,102631.34
2024-02-19T00:10:08.186Z,102636.72
2024-02-19T00:12:36.180Z,102638.56
2024-02-19T00:15:04.340Z,102629.66
2024-02-19T00:17:32.362Z,102633.19
2024-02-19T00:20:00.241Z,102635.03
2024-02-19T00:22:29.415Z,102637.75
2024-02-19T00:24:57.354Z,102647.66
2024-02-19T00:27:25.164Z,102648.66
2024-02-19T00:29:53.353Z,102647.84
2024-02-19T00:32:21.161Z,102648.19
2024-02-19T00:34:49.025Z,102650.88
2024-02-19T00:37:16.927Z,102647.72
2024-02-19T00:39:46.303Z,102652.06
2024-02-19T00:42:14.186Z,102648.06
2024-02-19T00:44:41.951Z,102649.09
2024-02-19T00:47:09.834Z,102654.47
2024-02-19T00:49:37.551Z,102660.84
2024-02-19T00:52:05.929Z,102652.13
2024-02-19T00:54:33.762Z,102658.88
2024-02-19T00:57:02.890Z,102659.06
2024-02-19T00:59:30.667Z,102663.78
2024-02-19T01:01:58.517Z,102665.44
2024-02-19T01:04:27.041Z,102666.63
2024-02-19T01:06:54.845Z,102664.78
2024-02-19T01:09:22.627Z,102662.94
2024-02-19T01:11:50.385Z,102668.31
2024-02-19T01:14:19.508Z,102663.94
2024-02-19T01:16:47.823Z,102667.47
2024-02-19T01:19:15.979Z,102662.09
2024-02-19T01:21:44.225Z,102662.94
2024-02-19T01:24:12.462Z,102667.28
2024-02-19T01:26:40.218Z,102664.97
2024-02-19T01:29:08.046Z,102668.66
2024-02-19T01:31:37.107Z,102669.50
2024-02-19T01:34:05.695Z,102674.03
2024-02-19T01:36:33.517Z,102673.19
2024-02-19T01:39:01.238Z,102669.50
2024-02-19T01:41:29.029Z,102682.94
2024-02-19T01:43:58.313Z,102685.81
2024-02-19T01:46:27.009Z,102692.19
2024-02-19T01:48:56.264Z,102686.81
2024-02-19T01:51:25.485Z,102690.50
2024-02-19T01:53:55.953Z,102685.50
2024-02-19T01:56:24.235Z,102689.69
2024-02-19T01:58:53.468Z,102695.06
2024-02-19T02:01:21.648Z,102693.88
2024-02-19T02:03:52.410Z,102688.66
2024-02-19T02:06:24.008Z,102693.03
2024-02-19T02:08:52.657Z,102693.03
2024-02-19T02:11:20.653Z,102692.19
2024-02-19T02:13:48.457Z,102694.03
2024-02-19T02:16:25.643Z,102694.88
2024-02-19T02:18:54.553Z,102700.25
2024-02-19T02:21:24.682Z,102693.03
2024-02-19T02:23:53.012Z,102692.38
2024-02-19T02:26:20.859Z,102694.22
2024-02-19T02:28:49.990Z,102698.59
2024-02-19T02:31:17.859Z,102696.72
2024-02-19T02:33:45.746Z,102690.50
2024-02-19T02:36:14.432Z,102700.44
2024-02-19T02:38:42.459Z,102705.16
2024-02-19T02:41:10.205Z,102696.25
2024-02-19T02:43:37.982Z,102697.25
2024-02-19T02:46:07.150Z,102693.94
2024-02-19T02:48:35.173Z,102702.00
2024-02-19T02:51:03.028Z,102698.28
2024-02-19T02:53:30.781Z,102694.56
2024-02-19T02:55:58.535Z,102684.84
2024-02-19T02:58:26.367Z,102692.06
2024-02-19T03:00:54.201Z,102689.38
2024-02-19T03:03:23.391Z,102687.53
2024-02-19T03:05:51.169Z,102684.00
2024-02-19T03:08:18.935Z,102683.19
2024-02-19T03:10:46.742Z,102684.00
2024-02-19T03:13:14.630Z,102685.88
2024-02-19T03:15:42.466Z,102684.19
2024-02-19T03:18:10.650Z,102678.63
2024-02-19T03:20:39.976Z,102684.19
2024-02-19T03:23:07.758Z,102682.53
2024-02-19T03:25:36.723Z,102686.41
2024-02-19T03:28:04.638Z,102682.69
2024-02-19T03:30:33.242Z,102686.22
2024-02-19T03:33:01.914Z,102684.56
2024-02-19T03:35:29.794Z,102681.03
2024-02-19T03:37:58.945Z,102684.56
2024-02-19T03:40:26.741Z,102671.94
2024-02-19T03:42:54.570Z,102671.13
2024-02-19T03:45:22.958Z,102674.81
2024-02-19T03:47:50.850Z,102670.28
2024-02-19T03:50:18.954Z,102677.50
2024-02-19T03:52:46.784Z,102683.72
2024-02-19T03:55:15.991Z,102684.91
2024-02-19T03:57:43.835Z,102683.88
2024-02-19T04:00:13.952Z,102691.94
2024-02-19T04:02:42.159Z,102690.28
2024-02-19T04:05:10.238Z,102682.22
2024-02-19T04:07:38.108Z,102686.09
2024-02-19T04:10:06.905Z,102686.09
2024-02-19T04:12:36.136Z,102676.19
2024-02-19T04:15:03.986Z,102670.81
2024-02-19T04:17:34.247Z,102668.28
2024-02-19T04:20:02.109Z,102665.59
2024-02-19T04:22:29.888Z,102675.34
2024-02-19T04:24:57.747Z,102678.19
2024-02-19T04:27:25.551Z,102671.81
2024-02-19T04:29:54.695Z,102676.34
2024-02-19T04:32:22.472Z,102674.69
2024-02-19T04:34:50.273Z,102669.31
2024-02-19T04:37:18.230Z,102672.16
2024-02-19T04:39:46.042Z,102664.94
2024-02-19T04:42:13.934Z,102673.00
2024-02-19T04:44:41.730Z,102669.47
2024-02-19T04:47:10.831Z,102669.66
2024-02-19T04:49:38.782Z,102667.13
2024-02-19T04:52:07.043Z,102680.56
2024-02-19T04:54:35.039Z,102671.69
2024-02-19T04:57:04.888Z,102659.25
2024-02-19T04:59:32.709Z,102677.41
2024-02-19T05:02:01.242Z,102683.59
2024-02-19T05:04:30.715Z,102681.75
2024-02-19T05:06:58.652Z,102679.91
2024-02-19T05:09:26.522Z,102687.13
2024-02-19T05:11:54.244Z,102684.28
2024-02-19T05:14:22.357Z,102690.66
2024-02-19T05:16:50.111Z,102686.97
2024-02-19T05:19:18.154Z,102689.66
2024-02-19T05:21:48.618Z,102683.44
2024-02-19T05:24:18.774Z,102676.56
2024-02-19T05:26:46.816Z,102676.22
2024-02-19T05:29:14.634Z,102677.06
2024-02-19T05:31:43.019Z,102675.69
2024-02-19T05:34:10.864Z,102676.69
2024-02-19T05:36:39.325Z,102669.66
2024-02-19T05:39:11.741Z,102682.78
2024-02-19T05:41:40.321Z,102676.56
2024-02-19T05:44:08.311Z,102676.56
2024-02-19T05:46:36.713Z,102686.31
2024-02-19T05:49:04.755Z,102674.72
2024-02-19T05:51:32.651Z,102676.38
2024-02-19T05:54:00.438Z,102668.50
2024-02-19T05:56:30.326Z,102660.44
2024-02-19T05:58:58.126Z,102650.53
2024-02-19T06:01:26.113Z,102655.91
2024-02-19T06:03:53.984Z,102660.28
2024-02-19T06:06:21.960Z,102662.94
2024-02-19T06:08:49.743Z,102676.38
2024-02-19T06:11:17.561Z,102672.88
2024-02-19T06:13:46.689Z,102668.31
2024-02-19T06:16:14.467Z,102668.16
2024-02-19T06:18:42.515Z,102667.63
2024-02-19T06:21:10.463Z,102673.00
2024-02-19T06:23:38.268Z,102675.69
2024-02-19T06:26:06.382Z,102684.63
2024-02-19T06:28:34.355Z,102686.44
2024-02-19T06:31:03.623Z,102680.09
2024-02-19T06:33:31.595Z,102687.31
2024-02-19T06:35:59.411Z,102682.78
2024-02-19T06:38:27.198Z,102681.94
2024-02-19T06:40:57.221Z,102686.31
2024-02-19T06:43:25.395Z,102687.31
2024-02-19T06:45:53.942Z,102685.47
2024-02-19T06:48:23.226Z,102685.47
2024-02-19T06:50:51.293Z,102685.47
2024-02-19T06:53:19.253Z,102686.44
2024-02-19T06:55:47.043Z,102688.97
2024-02-19T06:58:15.024Z,102675.56
2024-02-19T07:00:42.950Z,102656.75
2024-02-19T07:03:10.765Z,102673.88
2024-02-19T07:05:39.889Z,102689.13
2024-02-19T07:08:08.708Z,102679.25
2024-02-19T07:10:36.506Z,102687.31
2024-02-19T07:13:04.468Z,102688.47
2024-02-19T07:15:32.424Z,102690.66
2024-02-19T07:18:00.534Z,102694.19
2024-02-19T07:20:28.516Z,102679.75
2024-02-19T07:22:57.779Z,102682.25
2024-02-19T07:25:25.645Z,102687.63
2024-02-19T07:27:53.527Z,102681.41
2024-02-19T07:30:21.272Z,102682.25
2024-02-19T07:32:49.211Z,102684.09
2024-02-19T07:35:17.370Z,102681.59
2024-02-19T07:37:45.260Z,102676.38
2024-02-19T07:40:14.618Z,102687.31
2024-02-19T07:42:42.451Z,102687.97
2024-02-19T07:45:10.796Z,102695.19
2024-02-19T07:47:38.680Z,102693.34
2024-02-19T07:50:07.435Z,102691.50
2024-02-19T07:52:35.312Z,102687.97
2024-02-19T07:55:03.575Z,102689.66
2024-02-19T07:57:32.740Z,102686.97
2024-02-19T08:00:00.675Z,102686.97
2024-02-19T08:02:28.512Z,102684.09
2024-02-19T08:04:56.557Z,102685.78
2024-02-19T08:07:24.590Z,102680.41
2024-02-19T08:09:52.427Z,102663.28
2024-02-19T08:12:20.348Z,102667.81
2024-02-19T08:14:49.561Z,102668.66
2024-02-19T08:17:17.353Z,102666.97
2024-02-19T08:19:45.214Z,102660.59
2024-02-19T08:22:13.097Z,102665.13
2024-02-19T08:24:41.041Z,102665.81
2024-02-19T08:27:08.894Z,102672.88
2024-02-19T08:29:36.725Z,102677.22
2024-02-19T08:32:06.666Z,102688.81
2024-02-19T08:34:34.556Z,102686.13
2024-02-19T08:37:02.496Z,102684.28
2024-02-19T08:39:30.309Z,102679.91
2024-02-19T08:41:59.770Z,102684.63
2024-02-19T08:44:27.529Z,102685.59
2024-02-19T08:46:55.242Z,102681.94
2024-02-19T08:49:25.219Z,102689.81
2024-02-19T08:51:53.122Z,102692.69
2024-02-19T08:54:20.965Z,102680.75
2024-02-19T08:56:48.709Z,102689.97
2024-02-19T08:59:17.097Z,102688.34
2024-02-19T09:01:45.066Z,102686.59
2024-02-19T09:04:12.930Z,102704.84
2024-02-19T09:06:42.184Z,102697.69
2024-02-19T09:09:10.235Z,102703.31
2024-02-19T09:11:38.264Z,102711.44
2024-02-19T09:14:06.581Z,102717.97
2024-02-19T09:16:34.569Z,102718.16
2024-02-19T09:19:06.833Z,102714.97
2024-02-19T09:21:34.959Z,102717.59
2024-02-19T09:24:04.246Z,102710.59
2024-02-19T09:26:32.174Z,102716.69
2024-02-19T09:28:59.956Z,102715.56
2024-02-19T09:31:27.899Z,102711.53
2024-02-19T09:33:55.958Z,102709.03
2024-02-19T09:36:23.833Z,102713.56
2024-02-19T09:38:52.274Z,102704.00
2024-02-19T09:41:21.672Z,102715.13
2024-02-19T09:43:49.452Z,102716.31
2024-02-19T09:46:19.505Z,102715.47
2024-02-19T09:48:50.370Z,102724.31
2024-02-19T09:51:29.441Z,102713.00
2024-02-19T09:54:04.729Z,102709.34
2024-02-19T09:56:36.162Z,102709.59
2024-02-19T09:59:05.894Z,102696.25
2024-02-19T10:01:34.183Z,102706.22
2024-02-19T10:04:02.175Z,102694.84
2024-02-19T10:06:35.353Z,102693.84
2024-02-19T10:09:08.165Z,102695.91
2024-02-19T10:11:37.943Z,102693.34
2024-02-19T10:14:05.969Z,102683.13
2024-02-19T10:16:33.852Z,102691.03
2024-02-19T10:19:05.841Z,102695.03
2024-02-19T10:21:33.792Z,102699.41
2024-02-19T10:24:01.775Z,102699.41
2024-02-19T10:26:29.648Z,102693.63
2024-02-19T10:28:59.371Z,102687.78
2024-02-19T10:31:29.258Z,102692.25
2024-02-19T10:33:57.318Z,102691.34
2024-02-19T10:36:26.063Z,102684.94
2024-02-19T10:38:54.220Z,102682.88
2024-02-19T10:41:24.575Z,102683.97
2024-02-19T10:43:52.965Z,102678.66
2024-02-19T10:46:23.541Z,102673.81
2024-02-19T10:48:52.830Z,102674.34
2024-02-19T10:51:21.321Z,102673.03
2024-02-19T10:53:49.445Z,102667.38
2024-02-19T10:56:19.132Z,102670.25
2024-02-19T10:58:52.673Z,102665.22
2024-02-19T11:01:23.127Z,102657.50
2024-02-19T11:03:51.429Z,102656.03
2024-02-19T11:06:19.405Z,102661.59
2024-02-19T11:08:55.110Z,102659.25
2024-02-19T11:11:25.613Z,102639.94
2024-02-19T11:13:53.746Z,102653.75
2024-02-19T11:16:28.427Z,102647.72
2024-02-19T11:19:00.990Z,102638.81
2024-02-19T11:21:28.864Z,102639.81
2024-02-19T11:23:56.883Z,102638.16
2024-02-19T11:26:24.696Z,102632.59
2024-02-19T11:28:55.930Z,102641.84
2024-02-19T11:31:26.273Z,102629.44
2024-02-19T11:33:59.339Z,102624.22
2024-02-19T11:36:27.378Z,102618.47
2024-02-19T11:38:56.731Z,102621.00
2024-02-19T11:41:25.925Z,102615.63
2024-02-19T11:43:56.318Z,102615.72
2024-02-19T11:46:25.822Z,102620.13
2024-02-19T11:48:53.840Z,102605.03
2024-02-19T11:51:21.849Z,102605.91
2024-02-19T11:53:50.308Z,102605.53
2024-02-19T11:56:19.510Z,102601.91
2024-02-19T11:58:51.120Z,102595.72
2024-02-19T12:01:22.090Z,102598.59
2024-02-19T12:03:53.970Z,102600.22
2024-02-19T12:06:21.828Z,102598.88
2024-02-19T12:08:49.672Z,102596.63
2024-02-19T12:11:17.645Z,102596.31
2024-02-19T12:13:45.489Z,102588.25
2024-02-19T12:16:13.343Z,102581.56
2024-02-19T12:18:41.543Z,102589.13
2024-02-19T12:21:11.441Z,102590.66
2024-02-19T12:23:41.584Z,102583.06
2024-02-19T12:26:10.590Z,102587.44
2024-02-19T12:28:38.709Z,102586.03
2024-02-19T12:31:06.741Z,102576.19
2024-02-19T12:33:38.982Z,102568.47
2024-02-19T12:36:10.149Z,102568.75
2024-02-19T12:38:42.751Z,102568.47
2024-02-19T12:41:12.834Z,102580.66
2024-02-19T12:43:41.218Z,102574.78
2024-02-19T12:46:10.016Z,102577.84
2024-02-19T12:48:40.785Z,102575.34
2024-02-19T12:51:09.713Z,102552.69
2024-02-19T12:53:39.073Z,102547.97
2024-02-19T12:56:07.619Z,102526.16
2024-02-19T12:58:35.704Z,102514.72
2024-02-19T13:01:09.525Z,102519.66
2024-02-19T13:03:44.780Z,102540.53
2024-02-19T13:06:15.908Z,102529.28
2024-02-19T13:08:47.851Z,102512.69
2024-02-19T13:11:17.987Z,102513.72
2024-02-19T13:13:45.949Z,102516.41
2024-02-19T13:16:15.559Z,102532.91
2024-02-19T13:18:43.737Z,102534.75
2024-02-19T13:21:11.895Z,102530.78
2024-02-19T13:23:39.668Z,102523.44
2024-02-19T13:26:09.152Z,102536.50
2024-02-19T13:28:36.943Z,102540.41
2024-02-19T13:31:04.972Z,102535.69
2024-02-19T13:33:34.130Z,102533.81
2024-02-19T13:36:02.036Z,102533.81
2024-02-19T13:38:30.948Z,102533.94
2024-02-19T13:41:02.108Z,102525.78
2024-02-19T13:43:31.934Z,102534.88
2024-02-19T13:46:02.790Z,102531.34
2024-02-19T13:48:31.771Z,102530.69
2024-02-19T13:51:00.309Z,102511.19
2024-02-19T13:53:29.381Z,102506.19
2024-02-19T13:55:58.503Z,102516.56
2024-02-19T13:58:27.455Z,102522.50
2024-02-19T14:00:59.233Z,102526.31
2024-02-19T14:03:27.577Z,102522.06
2024-02-19T14:05:55.509Z,102527.34
2024-02-19T14:08:23.619Z,102522.91
2024-02-19T14:10:52.996Z,102528.84
2024-02-19T14:13:21.261Z,102526.72
2024-02-19T14:15:49.350Z,102533.31
2024-02-19T14:18:18.659Z,102534.88
2024-02-19T14:20:46.464Z,102543.22
2024-02-19T14:23:14.339Z,102532.34
2024-02-19T14:25:44.119Z,102524.47
2024-02-19T14:28:12.151Z,102522.16
2024-02-19T14:30:40.304Z,102519.47
2024-02-19T14:33:08.101Z,102510.72
2024-02-19T14:35:37.576Z,102513.13
2024-02-19T14:38:07.847Z,102508.78
2024-02-19T14:40:37.963Z,102513.97
2024-02-19T14:43:06.219Z,102500.06
2024-02-19T14:45:34.509Z,102508.13
2024-02-19T14:48:03.269Z,102514.34
2024-02-19T14:50:34.397Z,102494.84
2024-02-19T14:53:03.828Z,102503.75
2024-02-19T14:55:31.714Z,102508.13
2024-02-19T14:58:00.794Z,102505.25
2024-02-19T15:00:31.475Z,102505.25
2024-02-19T15:02:59.450Z,102499.50
2024-02-19T15:05:28.773Z,102505.72
2024-02-19T15:07:56.841Z,102502.19
2024-02-19T15:10:28.895Z,102509.25
2024-02-19T15:12:58.720Z,102508.22
2024-02-19T15:15:26.678Z,102507.38
2024-02-19T15:17:54.650Z,102507.03
2024-02-19T15:20:22.912Z,102509.53
2024-02-19T15:22:51.539Z,102507.84
2024-02-19T15:25:20.208Z,102512.41
2024-02-19T15:27:49.792Z,102508.50
2024-02-19T15:30:17.727Z,102502.94
2024-02-19T15:32:45.614Z,102498.69
2024-02-19T15:35:13.893Z,102498.03
2024-02-19T15:37:42.341Z,102508.25
2024-02-19T15:40:11.250Z,102508.41
2024-02-19T15:42:39.194Z,102510.09
2024-02-19T15:45:09.066Z,102504.91
2024-02-19T15:47:36.960Z,102509.25
2024-02-19T15:50:07.994Z,102502.38
2024-02-19T15:52:36.722Z,102504.25
2024-02-19T15:55:06.838Z,102501.56
2024-02-19T15:57:34.844Z,102500.53
2024-02-19T16:00:02.831Z,102505.91
2024-02-19T16:02:34.758Z,102507.13
2024-02-19T16:05:02.971Z,102500.06
2024-02-19T16:07:30.901Z,102512.03
2024-02-19T16:09:58.710Z,102511.38
2024-02-19T16:12:26.686Z,102505.34
2024-02-19T16:14:54.546Z,102508.22
2024-02-19T16:17:22.344Z,102508.22
2024-02-19T16:19:54.353Z,102511.09
2024-02-19T16:22:22.214Z,102512.13
2024-02-19T16:24:50.076Z,102505.25
2024-02-19T16:27:18.796Z,102510.63
2024-02-19T16:29:46.727Z,102504.41
2024-02-19T16:32:15.657Z,102511.66
2024-02-19T16:34:43.605Z,102519.25
2024-02-19T16:37:12.920Z,102507.84
2024-02-19T16:39:41.246Z,102500.44
2024-02-19T16:42:09.724Z,102503.13
2024-02-19T16:44:37.514Z,102504.97
2024-02-19T16:47:05.523Z,102506.16
2024-02-19T16:49:33.423Z,102494.56
2024-02-19T16:52:01.351Z,102511.56
2024-02-19T16:54:30.929Z,102504.31
2024-02-19T16:56:59.270Z,102509.69
2024-02-19T16:59:27.073Z,102500.78
2024-02-19T17:01:55.526Z,102504.31
2024-02-19T17:04:23.562Z,102516.38
2024-02-19T17:06:51.779Z,102511.38
2024-02-19T17:09:19.877Z,102508.06
2024-02-19T17:11:49.064Z,102505.53
2024-02-19T17:14:17.478Z,102519.19
2024-02-19T17:16:50.330Z,102520.56
2024-02-19T17:19:18.277Z,102523.34
2024-02-19T17:21:46.139Z,102516.09
2024-02-19T17:24:13.905Z,102523.09
2024-02-19T17:26:41.696Z,102525.69
2024-02-19T17:29:11.559Z,102538.59
2024-02-19T17:31:40.491Z,102536.00
2024-02-19T17:34:08.555Z,102540.25
2024-02-19T17:36:36.390Z,102550.09
2024-02-19T17:39:07.770Z,102550.66
2024-02-19T17:41:35.624Z,102561.13
2024-02-19T17:44:03.699Z,102568.06
2024-02-19T17:46:33.133Z,102570.19
2024-02-19T17:49:01.399Z,102571.94
2024-02-19T17:51:29.997Z,102574.88
2024-02-19T17:54:00.603Z,102578.63
2024-02-19T17:56:30.118Z,102571.66
2024-02-19T17:58:58.045Z,102583.13
2024-02-19T18:01:27.117Z,102573.38
2024-02-19T18:03:56.834Z,102577.25
2024-02-19T18:06:24.730Z,102578.94
2024-02-19T18:08:53.168Z,102579.78
2024-02-19T18:11:21.140Z,102586.16
2024-02-19T18:13:49.030Z,102585.81
2024-02-19T18:16:17.954Z,102592.69
2024-02-19T18:18:46.416Z,102594.13
2024-02-19T18:21:17.535Z,102606.53
2024-02-19T18:23:45.813Z,102605.53
2024-02-19T18:26:13.952Z,102603.31
2024-02-19T18:28:42.132Z,102616.94
2024-02-19T18:31:11.807Z,102613.41
2024-02-19T18:33:39.906Z,102614.06
2024-02-19T18:36:08.683Z,102609.34
2024-02-19T18:38:39.218Z,102624.28
2024-02-19T18:41:08.974Z,102620.03
2024-02-19T18:43:36.905Z,102632.13
2024-02-19T18:46:04.956Z,102630.75
2024-02-19T18:48:35.274Z,102629.53
2024-02-19T18:51:05.035Z,102633.72
2024-02-19T18:53:32.903Z,102634.38
2024-02-19T18:56:03.488Z,102632.22
2024-02-19T18:58:31.558Z,102644.47
2024-02-19T19:01:01.457Z,102641.63
2024-02-19T19:03:29.428Z,102644.06
2024-02-19T19:05:59.710Z,102637.59
2024-02-19T19:08:27.902Z,102648.75
2024-02-19T19:10:55.777Z,102639.22
2024-02-19T19:13:25.576Z,102643.97
2024-02-19T19:15:54.648Z,102640.34
2024-02-19T19:18:23.039Z,102647.50
2024-02-19T19:20:51.421Z,102647.50
2024-02-19T19:23:19.302Z,102651.59
2024-02-19T19:25:47.208Z,102655.75
2024-02-19T19:28:15.171Z,102663.25
2024-02-19T19:30:45.208Z,102663.34
2024-02-19T19:33:14.657Z,102668.31
2024-02-19T19:35:44.831Z,102665.50
2024-02-19T19:38:12.797Z,102663.38
2024-02-19T19:40:40.707Z,102663.25
2024-02-19T19:43:08.642Z,102669.84
2024-02-19T19:45:36.472Z,102665.81
2024-02-19T19:48:06.482Z,102673.97
2024-02-19T19:50:34.365Z,102674.31
2024-02-19T19:53:02.226Z,102676.16
2024-02-19T19:55:30.278Z,102670.97
2024-02-19T19:58:00.389Z,102673.19
2024-02-19T20:00:28.876Z,102673.53
2024-02-19T20:02:58.157Z,102671.03
2024-02-19T20:05:27.429Z,102673.06
2024-02-19T20:07:55.428Z,102667.69
2024-02-19T20:10:23.272Z,102667.00
2024-02-19T20:12:51.617Z,102673.59
2024-02-19T20:15:19.450Z,102676.28
2024-02-19T20:17:47.275Z,102675.63
2024-02-19T20:20:15.274Z,102672.09
2024-02-19T20:22:44.451Z,102679.31
2024-02-19T20:25:12.536Z,102686.72
2024-02-19T20:27:40.828Z,102676.16
2024-02-19T20:30:12.148Z,102675.50
2024-02-19T20:32:40.239Z,102678.34
2024-02-19T20:35:08.925Z,102685.59
2024-02-19T20:37:36.772Z,102686.78
2024-02-19T20:40:07.733Z,102682.41
2024-02-19T20:42:36.951Z,102700.38
2024-02-19T20:45:06.303Z,102696.19
2024-02-19T20:47:34.241Z,102698.22
2024-02-19T20:50:02.299Z,102697.56
2024-02-19T20:52:30.233Z,102703.44
2024-02-19T20:54:58.251Z,102710.66
2024-02-19T20:57:27.500Z,102703.59
2024-02-19T20:59:55.310Z,102704.63
2024-02-19T21:02:23.249Z,102711.84
2024-02-19T21:04:51.162Z,102708.50
2024-02-19T21:07:19.034Z,102706.81
2024-02-19T21:09:46.917Z,102717.56
2024-02-19T21:12:15.453Z,102715.06
2024-02-19T21:14:44.640Z,102715.06
2024-02-19T21:17:13.708Z,102709.84
2024-02-19T21:19:41.542Z,102710.88
2024-02-19T21:22:09.510Z,102709.22
2024-02-19T21:24:37.318Z,102705.88
2024-02-19T21:27:05.666Z,102714.97
2024-02-19T21:29:33.467Z,102709.56
2024-02-19T21:32:02.620Z,102715.97
2024-02-19T21:34:30.499Z,102723.38
2024-02-19T21:36:58.966Z,102731.44
2024-02-19T21:39:27.162Z,102723.72
2024-02-19T21:41:55.007Z,102729.94
2024-02-19T21:44:23.156Z,102723.06
2024-02-19T21:46:51.071Z,102737.50
2024-02-19T21:49:21.457Z,102733.97
2024-02-19T21:51:49.921Z,102728.94
2024-02-19T21:54:17.820Z,102724.59
2024-02-19T21:56:45.612Z,102729.97
2024-02-19T21:59:13.451Z,102731.81
2024-02-19T22:01:41.367Z,102726.59
2024-02-19T22:04:09.359Z,102731.97
2024-02-19T22:06:39.087Z,102723.06
2024-02-19T22:09:06.845Z,102736.66
2024-02-19T22:11:35.742Z,102739.50
2024-02-19T22:14:03.750Z,102741.72
2024-02-19T22:16:31.592Z,102738.00
2024-02-19T22:18:59.426Z,102738.19
2024-02-19T22:21:30.618Z,102739.03
2024-02-19T22:24:01.235Z,102749.75
2024-02-19T22:26:29.283Z,102749.09
2024-02-19T22:28:57.113Z,102753.63
2024-02-19T22:31:25.058Z,102759.19
2024-02-19T22:33:52.952Z,102752.13
2024-02-19T22:36:21.313Z,102755.66
2024-02-19T22:38:49.207Z,102758.50
2024-02-19T22:41:18.326Z,102755.84
2024-02-19T22:43:46.087Z,102759.34
2024-02-19T22:46:13.913Z,102751.47
2024-02-19T22:48:41.754Z,102760.38
2024-02-19T22:51:09.571Z,102759.53
2024-02-19T22:53:37.570Z,102754.31
2024-02-19T22:56:05.796Z,102757.00
2024-02-19T22:58:36.248Z,102756.16
2024-02-19T23:01:05.310Z,102758.84
2024-02-19T23:03:33.370Z,102759.69
2024-02-19T23:06:01.232Z,102760.72
2024-02-19T23:08:29.064Z,102765.25
2024-02-19T23:10:57.005Z,102755.84
2024-02-19T23:13:25.041Z,102761.88
2024-02-19T23:15:54.253Z,102763.91
2024-02-19T23:18:23.970Z,102755.84
2024-02-19T23:20:51.845Z,102758.69
2024-02-19T23:23:19.659Z,102766.09
2024-02-19T23:25:51.833Z,102767.28
2024-02-19T23:28:19.636Z,102769.13
2024-02-19T23:30:47.727Z,102760.41
2024-02-19T23:33:17.039Z,102768.63
2024-02-19T23:35:44.832Z,102762.41
2024-02-19T23:38:13.850Z,102768.97
2024-02-19T23:40:41.703Z,102766.44
2024-02-19T23:43:09.567Z,102765.59
2024-02-19T23:45:37.338Z,102773.00
2024-02-19T23:48:05.492Z,102775.84
2024-02-19T23:50:34.781Z,102775.00
2024-02-19T23:53:03.035Z,102774.16
2024-02-19T23:55:30.917Z,102774.50
2024-02-19T23:57:58.954Z,102774.50
